sensor_id;sensor_type;location;lat;lon;timestamp;pressure;altitude;pressure_sealevel;temperature;humidity
64340;BME280;63709;53.258;-8.814;2023-02-15T00:01:40;101536.25;;;14.48;100.00
64340;BME280;63709;53.258;-8.814;2023-02-15T00:04:16;101540.91;;;14.46;100.00
64340;BME280;63709;53.258;-8.814;2023-02-15T00:06:43;101535.06;;;14.52;100.00
64340;BME280;63709;53.258;-8.814;2023-02-15T00:09:09;101535.06;;;14.52;100.00
64340;BME280;63709;53.258;-8.814;2023-02-15T00:11:35;101523.94;;;14.57;100.00
64340;BME280;63709;53.258;-8.814;2023-02-15T00:14:21;101523.69;;;14.49;100.00
64340;BME280;63709;53.258;-8.814;2023-02-15T00:16:47;101511.38;;;14.46;100.00
64340;BME280;63709;53.258;-8.814;2023-02-15T00:19:14;101517.59;;;14.47;100.00
64340;BME280;63709;53.258;-8.814;2023-02-15T00:21:41;101512.94;;;14.38;100.00
64340;BME280;63709;53.258;-8.814;2023-02-15T00:24:09;101506.47;;;14.40;100.00
64340;BME280;63709;53.258;-8.814;2023-02-15T00:26:35;101495.75;;;14.51;100.00
64340;BME280;63709;53.258;-8.814;2023-02-15T00:29:02;101491.44;;;14.49;100.00
64340;BME280;63709;53.258;-8.814;2023-02-15T00:31:29;101490.00;;;14.45;100.00
64340;BME280;63709;53.258;-8.814;2023-02-15T00:34:04;101490.00;;;14.45;100.00
64340;BME280;63709;53.258;-8.814;2023-02-15T00:36:30;101465.09;;;14.43;100.00
64340;BME280;63709;53.258;-8.814;2023-02-15T00:38:56;101465.34;;;14.40;100.00
64340;BME280;63709;53.258;-8.814;2023-02-15T00:41:21;101463.13;;;14.56;100.00
64340;BME280;63709;53.258;-8.814;2023-02-15T00:43:48;101437.97;;;14.46;100.00
64340;BME280;63709;53.258;-8.814;2023-02-15T00:46:13;101441.66;;;14.56;100.00
64340;BME280;63709;53.258;-8.814;2023-02-15T00:48:40;101438.34;;;14.52;100.00
64340;BME280;63709;53.258;-8.814;2023-02-15T00:51:05;101419.75;;;14.61;100.00
64340;BME280;63709;53.258;-8.814;2023-02-15T00:53:32;101438.56;;;14.61;100.00
64340;BME280;63709;53.258;-8.814;2023-02-15T00:55:57;101466.53;;;14.69;100.00
64340;BME280;63709;53.258;-8.814;2023-02-15T00:58:23;101483.28;;;14.73;100.00
64340;BME280;63709;53.258;-8.814;2023-02-15T01:00:49;101476.56;;;14.67;100.00
64340;BME280;63709;53.258;-8.814;2023-02-15T01:03:17;101492.44;;;14.59;100.00
64340;BME280;63709;53.258;-8.814;2023-02-15T01:05:43;101483.53;;;14.25;100.00
64340;BME280;63709;53.258;-8.814;2023-02-15T01:08:08;101502.81;;;14.08;100.00
64340;BME280;63709;53.258;-8.814;2023-02-15T01:10:34;101519.72;;;13.86;100.00
64340;BME280;63709;53.258;-8.814;2023-02-15T01:13:00;101537.25;;;13.67;100.00
64340;BME280;63709;53.258;-8.814;2023-02-15T01:15:25;101567.38;;;13.36;100.00
64340;BME280;63709;53.258;-8.814;2023-02-15T01:17:52;101596.66;;;13.02;100.00
64340;BME280;63709;53.258;-8.814;2023-02-15T01:20:18;101597.78;;;12.74;100.00
64340;BME280;63709;53.258;-8.814;2023-02-15T01:22:44;101606.25;;;12.68;100.00
64340;BME280;63709;53.258;-8.814;2023-02-15T01:25:10;101627.47;;;12.32;100.00
64340;BME280;63709;53.258;-8.814;2023-02-15T01:27:36;101631.97;;;12.32;100.00
64340;BME280;63709;53.258;-8.814;2023-02-15T01:30:01;101635.19;;;12.24;100.00
64340;BME280;63709;53.258;-8.814;2023-02-15T01:32:30;101628.53;;;12.17;100.00
64340;BME280;63709;53.258;-8.814;2023-02-15T01:34:56;101628.09;;;11.98;100.00
64340;BME280;63709;53.258;-8.814;2023-02-15T01:37:22;101634.53;;;12.21;100.00
64340;BME280;63709;53.258;-8.814;2023-02-15T01:39:47;101638.81;;;12.10;100.00
64340;BME280;63709;53.258;-8.814;2023-02-15T01:42:13;101637.72;;;12.00;100.00
64340;BME280;63709;53.258;-8.814;2023-02-15T01:44:47;101636.84;;;12.00;100.00
64340;BME280;63709;53.258;-8.814;2023-02-15T01:47:13;101647.03;;;11.95;100.00
64340;BME280;63709;53.258;-8.814;2023-02-15T01:49:40;101629.78;;;11.99;100.00
64340;BME280;63709;53.258;-8.814;2023-02-15T01:52:07;101645.59;;;11.89;100.00
64340;BME280;63709;53.258;-8.814;2023-02-15T01:54:35;101645.13;;;11.82;100.00
64340;BME280;63709;53.258;-8.814;2023-02-15T01:57:05;101651.06;;;11.88;100.00
64340;BME280;63709;53.258;-8.814;2023-02-15T01:59:34;101659.84;;;11.90;100.00
64340;BME280;63709;53.258;-8.814;2023-02-15T02:02:01;101652.41;;;11.80;100.00
64340;BME280;63709;53.258;-8.814;2023-02-15T02:04:35;101646.75;;;11.58;100.00
64340;BME280;63709;53.258;-8.814;2023-02-15T02:07:03;101645.88;;;11.72;100.00
64340;BME280;63709;53.258;-8.814;2023-02-15T02:09:29;101646.09;;;11.81;100.00
64340;BME280;63709;53.258;-8.814;2023-02-15T02:11:57;101659.13;;;11.73;100.00
64340;BME280;63709;53.258;-8.814;2023-02-15T02:14:23;101649.59;;;11.69;100.00
64340;BME280;63709;53.258;-8.814;2023-02-15T02:24:59;101666.81;;;11.78;100.00
64340;BME280;63709;53.258;-8.814;2023-02-15T02:38:04;101685.53;;;11.92;100.00
64340;BME280;63709;53.258;-8.814;2023-02-15T02:40:43;101682.53;;;11.97;100.00
64340;BME280;63709;53.258;-8.814;2023-02-15T02:45:42;101685.97;;;11.99;100.00
64340;BME280;63709;53.258;-8.814;2023-02-15T02:48:10;101685.66;;;11.91;100.00
64340;BME280;63709;53.258;-8.814;2023-02-15T02:50:39;101685.66;;;11.91;100.00
64340;BME280;63709;53.258;-8.814;2023-02-15T02:53:06;101685.66;;;11.91;100.00
64340;BME280;63709;53.258;-8.814;2023-02-15T02:55:37;101683.91;;;11.90;100.00
64340;BME280;63709;53.258;-8.814;2023-02-15T02:58:20;101684.69;;;11.92;100.00
64340;BME280;63709;53.258;-8.814;2023-02-15T03:03:52;101682.19;;;11.89;100.00
64340;BME280;63709;53.258;-8.814;2023-02-15T03:09:23;101666.75;;;11.79;100.00
64340;BME280;63709;53.258;-8.814;2023-02-15T03:11:50;101662.50;;;11.90;100.00
64340;BME280;63709;53.258;-8.814;2023-02-15T03:14:16;101665.94;;;11.92;100.00
64340;BME280;63709;53.258;-8.814;2023-02-15T03:16:45;101661.47;;;12.05;100.00
64340;BME280;63709;53.258;-8.814;2023-02-15T03:21:41;101651.41;;;11.96;100.00
64340;BME280;63709;53.258;-8.814;2023-02-15T03:24:14;101644.75;;;11.89;100.00
64340;BME280;63709;53.258;-8.814;2023-02-15T03:26:46;101651.19;;;11.99;100.00
64340;BME280;63709;53.258;-8.814;2023-02-15T03:29:15;101630.66;;;11.99;100.00
64340;BME280;63709;53.258;-8.814;2023-02-15T03:31:43;101632.16;;;12.03;100.00
64340;BME280;63709;53.258;-8.814;2023-02-15T03:34:11;101627.97;;;11.99;100.00
64340;BME280;63709;53.258;-8.814;2023-02-15T03:36:56;101622.50;;;12.01;100.00
64340;BME280;63709;53.258;-8.814;2023-02-15T03:42:11;101609.56;;;11.95;100.00
64340;BME280;63709;53.258;-8.814;2023-02-15T03:44:45;101607.22;;;12.03;100.00
64340;BME280;63709;53.258;-8.814;2023-02-15T03:47:14;101612.03;;;11.98;100.00
64340;BME280;63709;53.258;-8.814;2023-02-15T03:49:42;101605.16;;;11.94;100.00
64340;BME280;63709;53.258;-8.814;2023-02-15T03:52:11;101605.78;;;11.84;100.00
64340;BME280;63709;53.258;-8.814;2023-02-15T03:54:37;101599.50;;;11.98;100.00
64340;BME280;63709;53.258;-8.814;2023-02-15T03:57:15;101594.03;;;12.00;100.00
64340;BME280;63709;53.258;-8.814;2023-02-15T04:00:01;101589.34;;;11.91;100.00
64340;BME280;63709;53.258;-8.814;2023-02-15T04:05:21;101597.59;;;11.73;100.00
64340;BME280;63709;53.258;-8.814;2023-02-15T04:07:46;101593.50;;;11.68;100.00
64340;BME280;63709;53.258;-8.814;2023-02-15T04:10:13;101592.25;;;11.73;100.00
64340;BME280;63709;53.258;-8.814;2023-02-15T04:12:59;101588.59;;;11.61;100.00
64340;BME280;63709;53.258;-8.814;2023-02-15T04:15:24;101590.16;;;11.51;100.00
64340;BME280;63709;53.258;-8.814;2023-02-15T04:18:08;101586.84;;;11.48;100.00
64340;BME280;63709;53.258;-8.814;2023-02-15T04:20:33;101589.47;;;11.35;100.00
64340;BME280;63709;53.258;-8.814;2023-02-15T04:23:18;101593.47;;;11.42;100.00
64340;BME280;63709;53.258;-8.814;2023-02-15T04:26:04;101591.72;;;11.41;100.00
64340;BME280;63709;53.258;-8.814;2023-02-15T04:28:29;101590.22;;;11.37;100.00
64340;BME280;63709;53.258;-8.814;2023-02-15T04:30:55;101590.13;;;11.38;100.00
64340;BME280;63709;53.258;-8.814;2023-02-15T04:33:27;101580.28;;;11.39;100.00
64340;BME280;63709;53.258;-8.814;2023-02-15T04:35:53;101586.56;;;11.38;100.00
64340;BME280;63709;53.258;-8.814;2023-02-15T04:38:18;101582.59;;;11.31;100.00
64340;BME280;63709;53.258;-8.814;2023-02-15T04:40:44;101583.09;;;11.23;100.00
64340;BME280;63709;53.258;-8.814;2023-02-15T04:43:09;101585.75;;;11.23;100.00
64340;BME280;63709;53.258;-8.814;2023-02-15T04:45:34;101576.69;;;11.26;100.00
64340;BME280;63709;53.258;-8.814;2023-02-15T04:48:00;101578.72;;;11.22;100.00
64340;BME280;63709;53.258;-8.814;2023-02-15T04:50:25;101579.75;;;11.20;100.00
64340;BME280;63709;53.258;-8.814;2023-02-15T04:52:52;101587.69;;;11.21;100.00
64340;BME280;63709;53.258;-8.814;2023-02-15T04:55:17;101581.00;;;11.28;100.00
64340;BME280;63709;53.258;-8.814;2023-02-15T04:57:45;101585.25;;;11.31;100.00
64340;BME280;63709;53.258;-8.814;2023-02-15T05:00:11;101588.59;;;11.34;100.00
64340;BME280;63709;53.258;-8.814;2023-02-15T05:02:36;101599.28;;;11.34;100.00
64340;BME280;63709;53.258;-8.814;2023-02-15T05:05:03;101605.50;;;11.35;100.00
64340;BME280;63709;53.258;-8.814;2023-02-15T05:07:30;101600.38;;;11.32;100.00
64340;BME280;63709;53.258;-8.814;2023-02-15T05:09:55;101603.69;;;11.35;100.00
64340;BME280;63709;53.258;-8.814;2023-02-15T05:12:22;101614.56;;;11.32;100.00
64340;BME280;63709;53.258;-8.814;2023-02-15T05:14:48;101611.06;;;11.32;100.00
64340;BME280;63709;53.258;-8.814;2023-02-15T05:17:13;101611.56;;;11.24;100.00
64340;BME280;63709;53.258;-8.814;2023-02-15T05:19:38;101611.75;;;11.21;100.00
64340;BME280;63709;53.258;-8.814;2023-02-15T05:22:04;101611.75;;;11.21;100.00
64340;BME280;63709;53.258;-8.814;2023-02-15T05:24:30;101617.59;;;11.13;100.00
64340;BME280;63709;53.258;-8.814;2023-02-15T05:27:15;101620.91;;;11.17;100.00
64340;BME280;63709;53.258;-8.814;2023-02-15T05:30:01;101603.06;;;11.18;100.00
64340;BME280;63709;53.258;-8.814;2023-02-15T05:32:26;101610.06;;;11.06;100.00
64340;BME280;63709;53.258;-8.814;2023-02-15T05:34:53;101613.47;;;11.08;100.00
64340;BME280;63709;53.258;-8.814;2023-02-15T05:37:20;101617.22;;;11.05;100.00
64340;BME280;63709;53.258;-8.814;2023-02-15T05:39:45;101614.44;;;11.07;100.00
64340;BME280;63709;53.258;-8.814;2023-02-15T05:42:10;101618.47;;;11.00;100.00
64340;BME280;63709;53.258;-8.814;2023-02-15T05:44:36;101608.16;;;10.94;100.00
64340;BME280;63709;53.258;-8.814;2023-02-15T05:47:03;101610.66;;;10.97;100.00
64340;BME280;63709;53.258;-8.814;2023-02-15T05:49:29;101603.91;;;10.91;100.00
64340;BME280;63709;53.258;-8.814;2023-02-15T05:51:56;101602.75;;;10.81;100.00
64340;BME280;63709;53.258;-8.814;2023-02-15T05:54:21;101608.97;;;10.67;100.00
64340;BME280;63709;53.258;-8.814;2023-02-15T05:56:47;101607.63;;;10.60;100.00
64340;BME280;63709;53.258;-8.814;2023-02-15T05:59:12;101611.25;;;10.59;100.00
64340;BME280;63709;53.258;-8.814;2023-02-15T06:01:37;101607.63;;;10.60;100.00
64340;BME280;63709;53.258;-8.814;2023-02-15T06:04:03;101599.91;;;10.55;100.00
64340;BME280;63709;53.258;-8.814;2023-02-15T06:06:30;101603.44;;;10.56;100.00
64340;BME280;63709;53.258;-8.814;2023-02-15T06:08:57;101601.53;;;10.58;100.00
64340;BME280;63709;53.258;-8.814;2023-02-15T06:11:22;101608.47;;;10.60;100.00
64340;BME280;63709;53.258;-8.814;2023-02-15T06:13:49;101612.59;;;10.66;100.00
64340;BME280;63709;53.258;-8.814;2023-02-15T06:16:14;101600.03;;;10.68;100.00
64340;BME280;63709;53.258;-8.814;2023-02-15T06:18:41;101603.06;;;10.62;100.00
64340;BME280;63709;53.258;-8.814;2023-02-15T06:21:06;101606.41;;;10.65;100.00
64340;BME280;63709;53.258;-8.814;2023-02-15T06:23:32;101607.16;;;10.68;100.00
64340;BME280;63709;53.258;-8.814;2023-02-15T06:25:59;101610.13;;;10.63;100.00
64340;BME280;63709;53.258;-8.814;2023-02-15T06:28:26;101602.97;;;10.63;100.00
64340;BME280;63709;53.258;-8.814;2023-02-15T06:30:51;101615.56;;;10.61;100.00
64340;BME280;63709;53.258;-8.814;2023-02-15T06:33:17;101603.72;;;10.65;100.00
64340;BME280;63709;53.258;-8.814;2023-02-15T06:35:44;101613.44;;;10.66;100.00
64340;BME280;63709;53.258;-8.814;2023-02-15T06:38:10;101609.63;;;10.71;100.00
64340;BME280;63709;53.258;-8.814;2023-02-15T06:40:36;101611.81;;;10.64;100.00
64340;BME280;63709;53.258;-8.814;2023-02-15T06:43:02;101610.69;;;10.68;100.00
64340;BME280;63709;53.258;-8.814;2023-02-15T06:45:27;101613.56;;;10.65;100.00
64340;BME280;63709;53.258;-8.814;2023-02-15T06:47:53;101615.56;;;10.61;100.00
64340;BME280;63709;53.258;-8.814;2023-02-15T06:50:18;101608.22;;;10.51;100.00
64340;BME280;63709;53.258;-8.814;2023-02-15T06:52:44;101603.06;;;10.48;100.00
64340;BME280;63709;53.258;-8.814;2023-02-15T06:55:10;101599.06;;;10.40;100.00
64340;BME280;63709;53.258;-8.814;2023-02-15T06:57:36;101614.41;;;10.37;100.00
64340;BME280;63709;53.258;-8.814;2023-02-15T07:00:02;101610.66;;;10.25;100.00
64340;BME280;63709;53.258;-8.814;2023-02-15T07:02:30;101609.00;;;10.23;100.00
64340;BME280;63709;53.258;-8.814;2023-02-15T07:04:56;101608.34;;;10.19;100.00
64340;BME280;63709;53.258;-8.814;2023-02-15T07:07:22;101615.31;;;10.22;100.00
64340;BME280;63709;53.258;-8.814;2023-02-15T07:09:49;101617.47;;;10.15;100.00
64340;BME280;63709;53.258;-8.814;2023-02-15T07:12:14;101614.91;;;10.13;100.00
64340;BME280;63709;53.258;-8.814;2023-02-15T07:14:58;101610.22;;;10.03;100.00
64340;BME280;63709;53.258;-8.814;2023-02-15T07:17:24;101617.25;;;10.04;100.00
64340;BME280;63709;53.258;-8.814;2023-02-15T07:19:54;101621.16;;;9.98;100.00
64340;BME280;63709;53.258;-8.814;2023-02-15T07:22:20;101619.72;;;9.92;100.00
64340;BME280;63709;53.258;-8.814;2023-02-15T07:24:46;101614.16;;;9.81;100.00
64340;BME280;63709;53.258;-8.814;2023-02-15T07:27:12;101626.75;;;9.79;100.00
64340;BME280;63709;53.258;-8.814;2023-02-15T07:29:38;101623.78;;;9.84;100.00
64340;BME280;63709;53.258;-8.814;2023-02-15T07:32:04;101624.81;;;9.81;100.00
64340;BME280;63709;53.258;-8.814;2023-02-15T07:34:31;101626.47;;;9.84;100.00
64340;BME280;63709;53.258;-8.814;2023-02-15T07:36:56;101630.75;;;9.86;100.00
64340;BME280;63709;53.258;-8.814;2023-02-15T07:39:23;101633.69;;;9.82;100.00
64340;BME280;63709;53.258;-8.814;2023-02-15T07:41:48;101635.88;;;9.89;100.00
64340;BME280;63709;53.258;-8.814;2023-02-15T07:46:43;101634.84;;;9.92;100.00
64340;BME280;63709;53.258;-8.814;2023-02-15T07:49:08;101641.31;;;9.88;100.00
64340;BME280;63709;53.258;-8.814;2023-02-15T07:51:34;101642.34;;;9.85;100.00
64340;BME280;63709;53.258;-8.814;2023-02-15T07:53:59;101638.44;;;9.77;100.00
64340;BME280;63709;53.258;-8.814;2023-02-15T07:56:25;101640.75;;;9.83;100.00
64340;BME280;63709;53.258;-8.814;2023-02-15T07:58:51;101647.69;;;9.85;100.00
64340;BME280;63709;53.258;-8.814;2023-02-15T08:01:17;101637.31;;;9.81;100.00
64340;BME280;63709;53.258;-8.814;2023-02-15T08:03:43;101644.28;;;9.83;100.00
64340;BME280;63709;53.258;-8.814;2023-02-15T08:06:10;101641.16;;;9.75;100.00
64340;BME280;63709;53.258;-8.814;2023-02-15T08:08:39;101647.13;;;9.80;100.00
64340;BME280;63709;53.258;-8.814;2023-02-15T08:11:21;101646.25;;;9.80;100.00
64340;BME280;63709;53.258;-8.814;2023-02-15T08:14:12;101654.69;;;9.72;100.00
64340;BME280;63709;53.258;-8.814;2023-02-15T08:19:06;101664.06;;;9.63;100.00
64340;BME280;63709;53.258;-8.814;2023-02-15T08:21:32;101660.63;;;9.77;100.00
64340;BME280;63709;53.258;-8.814;2023-02-15T08:23:59;101658.06;;;9.76;100.00
64340;BME280;63709;53.258;-8.814;2023-02-15T08:28:53;101659.66;;;9.78;100.00
64340;BME280;63709;53.258;-8.814;2023-02-15T08:31:19;101662.25;;;9.80;100.00
64340;BME280;63709;53.258;-8.814;2023-02-15T08:33:45;101671.19;;;9.79;100.00
64340;BME280;63709;53.258;-8.814;2023-02-15T08:36:13;101669.53;;;9.92;100.00
64340;BME280;63709;53.258;-8.814;2023-02-15T08:38:38;101664.09;;;9.93;100.00
64340;BME280;63709;53.258;-8.814;2023-02-15T08:43:37;101665.38;;;10.02;100.00
64340;BME280;63709;53.258;-8.814;2023-02-15T08:46:03;101661.28;;;10.11;100.00
64340;BME280;63709;53.258;-8.814;2023-02-15T08:48:29;101672.75;;;10.13;100.00
64340;BME280;63709;53.258;-8.814;2023-02-15T08:50:54;101671.06;;;10.26;100.00
64340;BME280;63709;53.258;-8.814;2023-02-15T08:53:20;101667.78;;;10.37;100.00
64340;BME280;63709;53.258;-8.814;2023-02-15T08:55:47;101666.25;;;10.47;100.00
64340;BME280;63709;53.258;-8.814;2023-02-15T08:58:19;101673.50;;;10.59;100.00
64340;BME280;63709;53.258;-8.814;2023-02-15T09:00:45;101676.09;;;10.61;100.00
64340;BME280;63709;53.258;-8.814;2023-02-15T09:03:12;101668.66;;;10.66;100.00
64340;BME280;63709;53.258;-8.814;2023-02-15T09:05:38;101671.31;;;10.52;100.00
64340;BME280;63709;53.258;-8.814;2023-02-15T09:08:04;101672.66;;;10.59;100.00
64340;BME280;63709;53.258;-8.814;2023-02-15T09:10:30;101678.09;;;10.57;100.00
64340;BME280;63709;53.258;-8.814;2023-02-15T09:12:56;101677.03;;;10.60;100.00
64340;BME280;63709;53.258;-8.814;2023-02-15T09:15:21;101686.97;;;10.58;100.00
64340;BME280;63709;53.258;-8.814;2023-02-15T09:17:47;101688.31;;;10.65;100.00
64340;BME280;63709;53.258;-8.814;2023-02-15T09:20:14;101690.13;;;10.64;100.00
64340;BME280;63709;53.258;-8.814;2023-02-15T09:22:39;101687.72;;;10.74;100.00
64340;BME280;63709;53.258;-8.814;2023-02-15T09:25:05;101691.25;;;10.75;100.00
64340;BME280;63709;53.258;-8.814;2023-02-15T09:27:30;101687.84;;;10.87;100.00
64340;BME280;63709;53.258;-8.814;2023-02-15T09:29:55;101702.72;;;10.77;100.00
64340;BME280;63709;53.258;-8.814;2023-02-15T09:32:21;101699.75;;;10.81;100.00
64340;BME280;63709;53.258;-8.814;2023-02-15T09:34:48;101698.91;;;10.95;100.00
64340;BME280;63709;53.258;-8.814;2023-02-15T09:37:13;101703.16;;;11.12;100.00
64340;BME280;63709;53.258;-8.814;2023-02-15T09:39:39;101706.44;;;11.17;100.00
64340;BME280;63709;53.258;-8.814;2023-02-15T09:42:13;101703.34;;;11.23;100.00
64340;BME280;63709;53.258;-8.814;2023-02-15T09:58:15;101694.28;;;11.67;100.00
64340;BME280;63709;53.258;-8.814;2023-02-15T10:00:46;101694.47;;;11.64;100.00
64340;BME280;63709;53.258;-8.814;2023-02-15T10:13:57;101696.16;;;12.06;100.00
64340;BME280;63709;53.258;-8.814;2023-02-15T10:16:28;101693.00;;;12.27;100.00
64340;BME280;63709;53.258;-8.814;2023-02-15T10:19:08;101697.28;;;12.29;100.00
64340;BME280;63709;53.258;-8.814;2023-02-15T10:21:49;101696.88;;;12.35;100.00
64340;BME280;63709;53.258;-8.814;2023-02-15T10:26:49;101703.97;;;12.62;100.00
64340;BME280;63709;53.258;-8.814;2023-02-15T10:31:49;101703.13;;;12.87;100.00
64340;BME280;63709;53.258;-8.814;2023-02-15T10:34:19;101696.78;;;12.75;100.00
64340;BME280;63709;53.258;-8.814;2023-02-15T10:39:37;101703.31;;;12.97;100.00
64340;BME280;63709;53.258;-8.814;2023-02-15T11:00:14;101695.28;;;13.83;100.00
64340;BME280;63709;53.258;-8.814;2023-02-15T11:02:51;101696.28;;;13.93;100.00
64340;BME280;63709;53.258;-8.814;2023-02-15T11:07:47;101695.25;;;14.07;100.00
64340;BME280;63709;53.258;-8.814;2023-02-15T11:12:39;101693.81;;;13.90;100.00
64340;BME280;63709;53.258;-8.814;2023-02-15T11:17:37;101680.03;;;13.84;100.00
64340;BME280;63709;53.258;-8.814;2023-02-15T11:20:14;101684.75;;;14.04;100.00
64340;BME280;63709;53.258;-8.814;2023-02-15T11:22:42;101682.84;;;14.17;100.00
64340;BME280;63709;53.258;-8.814;2023-02-15T11:25:28;101686.06;;;14.34;100.00
64340;BME280;63709;53.258;-8.814;2023-02-15T11:27:55;101676.31;;;14.44;100.00
64340;BME280;63709;53.258;-8.814;2023-02-15T11:30:25;101685.28;;;14.56;100.00
64340;BME280;63709;53.258;-8.814;2023-02-15T11:32:52;101677.59;;;14.62;100.00
64340;BME280;63709;53.258;-8.814;2023-02-15T11:35:41;101683.47;;;14.67;100.00
64340;BME280;63709;53.258;-8.814;2023-02-15T11:40:53;101678.31;;;14.53;100.00
64340;BME280;63709;53.258;-8.814;2023-02-15T11:45:51;101685.16;;;14.57;100.00
64340;BME280;63709;53.258;-8.814;2023-02-15T11:48:17;101688.72;;;14.58;100.00
64340;BME280;63709;53.258;-8.814;2023-02-15T11:50:43;101684.00;;;14.48;100.00
64340;BME280;63709;53.258;-8.814;2023-02-15T11:53:13;101682.63;;;14.20;100.00
64340;BME280;63709;53.258;-8.814;2023-02-15T11:55:47;101685.66;;;14.27;100.00
64340;BME280;63709;53.258;-8.814;2023-02-15T12:00:44;101674.63;;;14.43;100.00
64340;BME280;63709;53.258;-8.814;2023-02-15T12:06:00;101681.31;;;14.37;100.00
64340;BME280;63709;53.258;-8.814;2023-02-15T12:08:32;101671.19;;;14.41;100.00
64340;BME280;63709;53.258;-8.814;2023-02-15T12:11:25;101677.97;;;14.58;100.00
64340;BME280;63709;53.258;-8.814;2023-02-15T12:13:57;101671.25;;;14.63;100.00
64340;BME280;63709;53.258;-8.814;2023-02-15T12:16:23;101680.06;;;14.76;100.00
64340;BME280;63709;53.258;-8.814;2023-02-15T12:18:50;101671.88;;;14.89;100.00
64340;BME280;63709;53.258;-8.814;2023-02-15T12:21:28;101673.22;;;14.84;100.00
64340;BME280;63709;53.258;-8.814;2023-02-15T12:23:57;101671.03;;;15.00;100.00
64340;BME280;63709;53.258;-8.814;2023-02-15T12:26:34;101660.50;;;14.97;100.00
64340;BME280;63709;53.258;-8.814;2023-02-15T12:29:01;101670.53;;;14.84;100.00
64340;BME280;63709;53.258;-8.814;2023-02-15T12:31:41;101674.94;;;14.85;100.00
64340;BME280;63709;53.258;-8.814;2023-02-15T12:34:12;101672.25;;;14.85;100.00
64340;BME280;63709;53.258;-8.814;2023-02-15T12:36:43;101668.34;;;14.77;100.00
64340;BME280;63709;53.258;-8.814;2023-02-15T12:41:37;101671.63;;;14.70;100.00
64340;BME280;63709;53.258;-8.814;2023-02-15T12:44:06;101662.72;;;14.69;100.00
64340;BME280;63709;53.258;-8.814;2023-02-15T12:46:32;101663.56;;;14.59;100.00
64340;BME280;63709;53.258;-8.814;2023-02-15T12:49:07;101665.78;;;14.65;100.00
64340;BME280;63709;53.258;-8.814;2023-02-15T12:56:47;101657.28;;;14.47;100.00
64340;BME280;63709;53.258;-8.814;2023-02-15T12:59:13;101644.00;;;14.57;100.00
64340;BME280;63709;53.258;-8.814;2023-02-15T13:01:39;101651.22;;;14.56;100.00
64340;BME280;63709;53.258;-8.814;2023-02-15T13:04:29;101641.06;;;14.60;100.00
64340;BME280;63709;53.258;-8.814;2023-02-15T13:06:55;101648.16;;;14.61;100.00
64340;BME280;63709;53.258;-8.814;2023-02-15T13:09:33;101641.59;;;14.65;100.00
64340;BME280;63709;53.258;-8.814;2023-02-15T13:14:46;101644.50;;;14.62;100.00
64340;BME280;63709;53.258;-8.814;2023-02-15T13:17:13;101639.38;;;14.70;100.00
64340;BME280;63709;53.258;-8.814;2023-02-15T13:19:42;101634.84;;;14.70;100.00
64340;BME280;63709;53.258;-8.814;2023-02-15T13:24:58;101630.56;;;14.79;100.00
64340;BME280;63709;53.258;-8.814;2023-02-15T13:27:30;101628.63;;;14.70;100.00
64340;BME280;63709;53.258;-8.814;2023-02-15T13:30:00;101633.03;;;14.71;100.00
64340;BME280;63709;53.258;-8.814;2023-02-15T13:32:33;101639.13;;;14.62;100.00
64340;BME280;63709;53.258;-8.814;2023-02-15T13:35:01;101633.00;;;14.60;100.00
64340;BME280;63709;53.258;-8.814;2023-02-15T13:37:45;101641.31;;;14.57;100.00
64340;BME280;63709;53.258;-8.814;2023-02-15T13:40:35;101636.44;;;14.62;100.00
64340;BME280;63709;53.258;-8.814;2023-02-15T13:45:32;101642.91;;;14.59;100.00
64340;BME280;63709;53.258;-8.814;2023-02-15T13:48:20;101647.25;;;14.38;100.00
64340;BME280;63709;53.258;-8.814;2023-02-15T13:53:42;101647.50;;;14.46;100.00
64340;BME280;63709;53.258;-8.814;2023-02-15T13:56:24;101639.44;;;14.46;100.00
64340;BME280;63709;53.258;-8.814;2023-02-15T14:20:25;101621.03;;;13.71;100.00
64340;BME280;63709;53.258;-8.814;2023-02-15T14:22:55;101623.59;;;13.61;100.00
64340;BME280;63709;53.258;-8.814;2023-02-15T14:28:05;101616.94;;;13.78;100.00
64340;BME280;63709;53.258;-8.814;2023-02-15T14:30:38;101608.75;;;13.68;100.00
64340;BME280;63709;53.258;-8.814;2023-02-15T14:35:49;101599.97;;;13.77;100.00
64340;BME280;63709;53.258;-8.814;2023-02-15T14:48:45;101577.25;;;14.06;100.00
64340;BME280;63709;53.258;-8.814;2023-02-15T14:51:37;101577.38;;;14.15;100.00
64340;BME280;63709;53.258;-8.814;2023-02-15T14:53:57;101564.09;;;14.25;100.00
64340;BME280;63709;53.258;-8.814;2023-02-15T14:56:22;101559.72;;;14.35;100.00
64340;BME280;63709;53.258;-8.814;2023-02-15T15:01:24;101547.84;;;14.38;100.00
64340;BME280;63709;53.258;-8.814;2023-02-15T15:03:51;101552.75;;;14.33;100.00
64340;BME280;63709;53.258;-8.814;2023-02-15T15:06:31;101548.38;;;14.32;100.00
64340;BME280;63709;53.258;-8.814;2023-02-15T15:09:14;101540.91;;;14.35;100.00
64340;BME280;63709;53.258;-8.814;2023-02-15T15:11:46;101543.59;;;14.35;100.00
64340;BME280;63709;53.258;-8.814;2023-02-15T15:14:36;101538.22;;;14.24;100.00
64340;BME280;63709;53.258;-8.814;2023-02-15T15:16:58;101531.97;;;14.35;100.00
64340;BME280;63709;53.258;-8.814;2023-02-15T15:22:17;101537.34;;;14.35;100.00
64340;BME280;63709;53.258;-8.814;2023-02-15T15:29:54;101528.09;;;14.39;100.00
64340;BME280;63709;53.258;-8.814;2023-02-15T15:32:19;101518.56;;;14.46;100.00
64340;BME280;63709;53.258;-8.814;2023-02-15T15:47:40;101524.66;;;14.48;100.00
64340;BME280;63709;53.258;-8.814;2023-02-15T15:50:17;101518.31;;;14.26;100.00
64340;BME280;63709;53.258;-8.814;2023-02-15T15:52:44;101514.06;;;14.24;100.00